| time (UTC) | temp F | wind direction | speed knots | gust knots | rain 1hr in | rain 24hr in | rain mn in | humidity % | barometer mb |
| 20260508065016 | 53 | 221 | 0.9 | 2.6 | 0.00 | 0.00 | 0.00 | 23 | 1016.4 |
| 20260508064017 | 53 | 357 | 0.0 | 1.7 | 0.00 | 0.00 | 0.00 | 23 | 1016.3 |
| 20260508063016 | 53 | 84 | 0.0 | 0.9 | 0.00 | 0.00 | 0.00 | 23 | 1016.3 |
| 20260508062036 | 54 | 21 | 0.9 | 1.7 | 0.00 | 0.00 | 0.00 | 23 | 1016.3 |
| 20260508061017 | 54 | 225 | 0.9 | 1.7 | 0.00 | 0.00 | 0.00 | 22 | 1016.2 |
| 20260508060016 | 55 | 247 | 0.0 | 1.7 | 0.00 | 0.00 | 0.00 | 21 | 1016.2 |
| 20260508055016 | 55 | 56 | 0.9 | 2.6 | 0.00 | 0.00 | 0.00 | 20 | 1016.2 |
| 20260508054037 | 56 | 29 | 0.9 | 1.7 | 0.00 | 0.00 | 0.00 | 20 | 1016.1 |
| 20260508053017 | 57 | 14 | 0.9 | 1.7 | 0.00 | 0.00 | 0.00 | 20 | 1016.1 |
| 20260508052017 | 57 | 225 | 0.9 | 3.5 | 0.00 | 0.00 | 0.00 | 19 | 1016.0 |
| 20260508051058 | 58 | 206 | 1.7 | 3.5 | 0.00 | 0.00 | 0.00 | 18 | 1016.0 |
| 20260508050017 | 59 | 198 | 3.5 | 7.0 | 0.00 | 0.00 | 0.00 | 18 | 1016.0 |
| 20260508045018 | 58 | 206 | 1.7 | 4.3 | 0.00 | 0.00 | 0.00 | 19 | 1015.9 |
| 20260508044055 | 58 | 115 | 0.9 | 1.7 | 0.00 | 0.00 | 0.00 | 19 | 1015.9 |
| 20260508043015 | 58 | 4 | 0.9 | 1.7 | 0.00 | 0.00 | 0.00 | 19 | 1015.9 |
| 20260508042015 | 58 | 7 | 0.0 | 1.7 | 0.00 | 0.00 | 0.00 | 18 | 1015.8 |
| 20260508041015 | 59 | 2 | 0.9 | 1.7 | 0.00 | 0.00 | 0.00 | 17 | 1015.9 |
| 20260508040015 | 59 | 343 | 0.9 | 2.6 | 0.00 | 0.00 | 0.00 | 16 | 1015.8 |
| 20260508035016 | 60 | 349 | 1.7 | 2.6 | 0.00 | 0.00 | 0.00 | 15 | 1015.8 |
| 20260508034016 | 61 | 352 | 1.7 | 2.6 | 0.00 | 0.00 | 0.00 | 15 | 1015.6 |
| 20260508033016 | 62 | 333 | 1.7 | 2.6 | 0.00 | 0.00 | 0.00 | 14 | 1015.5 |
| 20260508032016 | 63 | 351 | 1.7 | 2.6 | 0.00 | 0.00 | 0.00 | 14 | 1015.3 |
| 20260508031016 | 64 | 328 | 1.7 | 3.5 | 0.00 | 0.00 | 0.00 | 13 | 1015.2 |
| 20260508030016 | 66 | 339 | 0.9 | 1.7 | 0.00 | 0.00 | 0.00 | 13 | 1015.1 |
| 20260508025017 | 67 | 329 | 0.9 | 2.6 | 0.00 | 0.00 | 0.00 | 13 | 1014.9 |
| 20260508024016 | 68 | 334 | 0.9 | 2.6 | 0.00 | 0.00 | 0.00 | 12 | 1014.8 |
| 20260508023017 | 68 | 326 | 0.9 | 2.6 | 0.00 | 0.00 | 0.00 | 11 | 1014.7 |
| 20260508022017 | 69 | 327 | 0.9 | 3.5 | 0.00 | 0.00 | 0.00 | 11 | 1014.6 |
| 20260508021017 | 70 | 321 | 0.9 | 3.5 | 0.00 | 0.00 | 0.00 | 10 | 1014.4 |
| 20260508020017 | 71 | 324 | 1.7 | 3.5 | 0.00 | 0.00 | 0.00 | 10 | 1014.3 |
| 20260508015017 | 72 | 327 | 1.7 | 4.3 | 0.00 | 0.00 | 0.00 | 10 | 1014.2 |
| 20260508014017 | 73 | 328 | 1.7 | 4.3 | 0.00 | 0.00 | 0.00 | 10 | 1014.2 |
| 20260508013017 | 73 | 334 | 3.5 | 7.8 | 0.00 | 0.00 | 0.00 | 10 | 1014.0 |
| 20260508012017 | 74 | 321 | 1.7 | 5.2 | 0.00 | 0.00 | 0.00 | 10 | 1014.0 |
| 20260508011018 | 73 | 353 | 1.7 | 4.3 | 0.00 | 0.00 | 0.00 | 11 | 1014.0 |
| 20260508010018 | 74 | 213 | 0.9 | 2.6 | 0.00 | 0.00 | 0.00 | 14 | 1014.0 |
| 20260508005018 | 74 | 251 | 1.7 | 3.5 | 0.00 | 0.00 | 0.00 | 13 | 1014.0 |
| 20260508004018 | 75 | 257 | 1.7 | 4.3 | 0.00 | 0.00 | 0.00 | 13 | 1014.0 |
| 20260508003018 | 76 | 12 | 1.7 | 3.5 | 0.00 | 0.00 | 0.00 | 12 | 1013.9 |
| 20260508002018 | 77 | 80 | 0.9 | 2.6 | 0.00 | 0.00 | 0.00 | 12 | 1013.9 |
| 20260508001016 | 77 | 200 | 1.7 | 5.2 | 0.00 | 0.00 | 0.00 | 10 | 1013.8 |
| 20260508000016 | 76 | 262 | 0.9 | 3.5 | 0.00 | 0.00 | 0.00 | 13 | 1013.9 |
| 20260507235016 | 76 | 188 | 2.6 | 5.2 | 0.00 | 0.00 | 0.00 | 12 | 1013.9 |
| 20260507234016 | 76 | 168 | 2.6 | 7.8 | 0.00 | 0.00 | 0.00 | 12 | 1013.9 |
| 20260507233016 | 76 | 206 | 2.6 | 5.2 | 0.00 | 0.00 | 0.00 | 12 | 1014.1 |
| 20260507232016 | 76 | 207 | 1.7 | 6.1 | 0.00 | 0.00 | 0.00 | 13 | 1014.1 |
| 20260507231016 | 76 | 155 | 1.7 | 7.0 | 0.00 | 0.00 | 0.00 | 13 | 1014.2 |
| 20260507230057 | 76 | 188 | 2.6 | 9.6 | 0.00 | 0.00 | 0.00 | 12 | 1014.4 |
| 20260507225037 | 76 | 203 | 2.6 | 7.0 | 0.00 | 0.00 | 0.00 | 11 | 1014.4 |
| 20260507224017 | 76 | 226 | 1.7 | 3.5 | 0.00 | 0.00 | 0.00 | 11 | 1014.5 |
| 20260507223017 | 77 | 286 | 1.7 | 5.2 | 0.00 | 0.00 | 0.00 | 11 | 1014.6 |
| 20260507222017 | 76 | 214 | 2.6 | 7.8 | 0.00 | 0.00 | 0.00 | 13 | 1014.7 |
| 20260507221017 | 76 | 138 | 1.7 | 4.3 | 0.00 | 0.00 | 0.00 | 14 | 1014.9 |
| 20260507220017 | 75 | 171 | 1.7 | 7.0 | 0.00 | 0.00 | 0.00 | 14 | 1015.0 |
| 20260507215017 | 75 | 85 | 3.5 | 8.7 | 0.00 | 0.00 | 0.00 | 14 | 1015.1 |
| 20260507214017 | 75 | 231 | 1.7 | 6.1 | 0.00 | 0.00 | 0.00 | 11 | 1015.4 |
| 20260507213038 | 74 | 277 | 1.7 | 3.5 | 0.00 | 0.00 | 0.00 | 11 | 1015.6 |
| 20260507212018 | 73 | 259 | 2.6 | 6.1 | 0.00 | 0.00 | 0.00 | 13 | 1015.8 |
| 20260507211015 | 73 | 197 | 2.6 | 6.1 | 0.00 | 0.00 | 0.00 | 14 | 1016.1 |
| 20260507210015 | 73 | 164 | 2.6 | 7.0 | 0.00 | 0.00 | 0.00 | 16 | 1016.2 |
| 20260507205016 | 72 | 199 | 3.5 | 7.8 | 0.00 | 0.00 | 0.00 | 15 | 1016.4 |
| 20260507204015 | 72 | 188 | 2.6 | 8.7 | 0.00 | 0.00 | 0.00 | 15 | 1016.6 |
| 20260507203015 | 71 | 170 | 2.6 | 6.1 | 0.00 | 0.00 | 0.00 | 17 | 1016.8 |
| 20260507202056 | 71 | 159 | 2.6 | 6.1 | 0.00 | 0.00 | 0.00 | 18 | 1017.1 |
| 20260507201016 | 70 | 229 | 2.6 | 6.1 | 0.00 | 0.00 | 0.00 | 18 | 1017.2 |
| 20260507200016 | 70 | 222 | 1.7 | 5.2 | 0.00 | 0.00 | 0.00 | 19 | 1017.3 |
| 20260507195036 | 69 | 171 | 2.6 | 6.1 | 0.00 | 0.00 | 0.00 | 19 | 1017.5 |
| 20260507194016 | 69 | 118 | 1.7 | 4.3 | 0.00 | 0.00 | 0.00 | 20 | 1017.7 |
| 20260507193037 | 68 | 212 | 2.6 | 6.1 | 0.00 | 0.00 | 0.00 | 20 | 1017.8 |
| 20260507192017 | 67 | 189 | 3.5 | 6.1 | 0.00 | 0.00 | 0.00 | 21 | 1018.0 |
| 20260507191017 | 68 | 212 | 3.5 | 6.1 | 0.00 | 0.00 | 0.00 | 21 | 1018.2 |
| 20260507190037 | 66 | 140 | 1.7 | 5.2 | 0.00 | 0.00 | 0.00 | 23 | 1018.4 |
| 20260507185017 | 66 | 218 | 2.6 | 8.7 | 0.00 | 0.00 | 0.00 | 23 | 1018.6 |
| 20260507184017 | 65 | 44 | 2.6 | 6.1 | 0.00 | 0.00 | 0.00 | 23 | 1018.7 |
| 20260507183017 | 63 | 8 | 0.9 | 3.5 | 0.00 | 0.00 | 0.00 | 24 | 1019.0 |
| 20260507182017 | 64 | 25 | 2.6 | 5.2 | 0.00 | 0.00 | 0.00 | 24 | 1019.1 |
| 20260507181017 | 63 | 345 | 1.7 | 6.1 | 0.00 | 0.00 | 0.00 | 25 | 1019.3 |
| 20260507180017 | 62 | 96 | 0.9 | 3.5 | 0.00 | 0.00 | 0.00 | 26 | 1019.5 |
| 20260507175058 | 61 | 42 | 1.7 | 5.2 | 0.00 | 0.00 | 0.00 | 28 | 1019.7 |
| 20260507174018 | 60 | 191 | 2.6 | 5.2 | 0.00 | 0.00 | 0.00 | 28 | 1019.8 |
| 20260507173015 | 60 | 25 | 1.7 | 4.3 | 0.00 | 0.00 | 0.00 | 30 | 1020.0 |
| 20260507172015 | 59 | 200 | 1.7 | 5.2 | 0.00 | 0.00 | 0.00 | 30 | 1020.2 |
| 20260507171016 | 59 | 22 | 2.6 | 7.0 | 0.00 | 0.00 | 0.00 | 32 | 1020.4 |
| 20260507170016 | 58 | 14 | 1.7 | 5.2 | 0.00 | 0.00 | 0.00 | 32 | 1020.5 |
| 20260507165016 | 58 | 8 | 3.5 | 7.8 | 0.00 | 0.00 | 0.00 | 32 | 1020.5 |
| 20260507164016 | 57 | 44 | 1.7 | 4.3 | 0.00 | 0.00 | 0.00 | 37 | 1020.7 |
| 20260507163016 | 56 | 38 | 1.7 | 3.5 | 0.00 | 0.00 | 0.00 | 39 | 1020.8 |
| 20260507162016 | 55 | 31 | 2.6 | 7.0 | 0.00 | 0.00 | 0.00 | 40 | 1020.9 |
| 20260507161016 | 54 | 28 | 2.6 | 7.8 | 0.00 | 0.00 | 0.00 | 43 | 1021.1 |
| 20260507160017 | 53 | 32 | 2.6 | 6.1 | 0.00 | 0.00 | 0.00 | 43 | 1021.1 |
| 20260507155037 | 53 | 30 | 2.6 | 6.1 | 0.00 | 0.00 | 0.00 | 46 | 1021.2 |
| 20260507154017 | 52 | 38 | 1.7 | 4.3 | 0.00 | 0.00 | 0.00 | 48 | 1021.3 |
| 20260507153017 | 51 | 28 | 2.6 | 6.1 | 0.00 | 0.00 | 0.00 | 49 | 1021.4 |
| 20260507152017 | 50 | 43 | 2.6 | 5.2 | 0.00 | 0.00 | 0.00 | 51 | 1021.5 |
| 20260507151017 | 49 | 36 | 2.6 | 7.8 | 0.00 | 0.00 | 0.00 | 52 | 1021.5 |
| 20260507150017 | 48 | 33 | 4.3 | 8.7 | 0.00 | 0.00 | 0.00 | 54 | 1021.5 |
| 20260507145017 | 47 | 26 | 4.3 | 7.8 | 0.00 | 0.00 | 0.00 | 58 | 1021.6 |
| 20260507144037 | 47 | 23 | 5.2 | 8.7 | 0.00 | 0.00 | 0.00 | 60 | 1021.7 |
| 20260507143017 | 46 | 23 | 4.3 | 7.8 | 0.00 | 0.00 | 0.00 | 61 | 1021.8 |
| 20260507142018 | 45 | 16 | 5.2 | 10.4 | 0.00 | 0.00 | 0.00 | 63 | 1021.8 |
| 20260507141018 | 44 | 19 | 6.1 | 8.7 | 0.00 | 0.00 | 0.00 | 65 | 1021.9 |
| 20260507140015 | 44 | 26 | 4.3 | 7.8 | 0.00 | 0.00 | 0.00 | 67 | 1022.0 |
| 20260507135015 | 43 | 24 | 6.1 | 9.6 | 0.00 | 0.00 | 0.00 | 68 | 1022.1 |
| 20260507134015 | 43 | 18 | 6.1 | 9.6 | 0.00 | 0.00 | 0.00 | 65 | 1022.0 |
| 20260507133016 | 42 | 26 | 5.2 | 7.8 | 0.00 | 0.00 | 0.00 | 63 | 1021.8 |
| 20260507132016 | 42 | 26 | 4.3 | 7.8 | 0.00 | 0.00 | 0.00 | 61 | 1021.7 |
| 20260507131015 | 41 | 27 | 3.5 | 7.8 | 0.00 | 0.00 | 0.00 | 61 | 1021.8 |
| 20260507130016 | 40 | 21 | 2.6 | 6.1 | 0.00 | 0.00 | 0.00 | 67 | 1021.7 |
| 20260507125056 | 40 | 356 | 2.6 | 4.3 | 0.00 | 0.00 | 0.00 | 68 | 1021.6 |
| 20260507124016 | 39 | 358 | 1.7 | 2.6 | 0.00 | 0.00 | 0.00 | 71 | 1021.7 |
| 20260507123016 | 39 | 337 | 0.9 | 2.6 | 0.00 | 0.00 | 0.00 | 72 | 1021.5 |
| 20260507122016 | 39 | 354 | 1.7 | 2.6 | 0.00 | 0.00 | 0.00 | 71 | 1021.3 |
| 20260507121016 | 39 | 338 | 1.7 | 3.5 | 0.00 | 0.00 | 0.00 | 71 | 1021.2 |
| 20260507120037 | 38 | 350 | 1.7 | 5.2 | 0.00 | 0.00 | 0.00 | 69 | 1021.2 |
| 20260507115017 | 38 | 342 | 1.7 | 4.3 | 0.00 | 0.00 | 0.00 | 69 | 1021.2 |
| 20260507114017 | 39 | 350 | 1.7 | 4.3 | 0.00 | 0.00 | 0.00 | 68 | 1021.2 |
| 20260507113017 | 39 | 345 | 1.7 | 3.5 | 0.00 | 0.00 | 0.00 | 66 | 1021.2 |
| 20260507112017 | 39 | 4 | 2.6 | 4.3 | 0.00 | 0.00 | 0.00 | 64 | 1021.2 |
| 20260507111015 | 40 | 9 | 2.6 | 6.1 | 0.00 | 0.00 | 0.00 | 61 | 1021.2 |
| 20260507110015 | 40 | 352 | 2.6 | 6.1 | 0.00 | 0.00 | 0.00 | 60 | 1021.2 |
| 20260507105016 | 41 | 337 | 1.7 | 5.2 | 0.00 | 0.00 | 0.00 | 57 | 1021.1 |
| 20260507104016 | 41 | 339 | 2.6 | 4.3 | 0.00 | 0.00 | 0.00 | 56 | 1021.1 |
| 20260507103015 | 42 | 360 | 1.7 | 4.3 | 0.00 | 0.00 | 0.00 | 54 | 1021.1 |
| 20260507102015 | 42 | 2 | 1.7 | 4.3 | 0.00 | 0.00 | 0.00 | 52 | 1021.1 |
| 20260507101016 | 42 | 350 | 1.7 | 3.5 | 0.00 | 0.00 | 0.00 | 49 | 1021.0 |
| 20260507100056 | 43 | 18 | 1.7 | 5.2 | 0.00 | 0.00 | 0.00 | 46 | 1021.0 |
| 20260507095016 | 43 | 351 | 1.7 | 4.3 | 0.00 | 0.00 | 0.00 | 44 | 1020.9 |
| 20260507094056 | 42 | 3 | 0.9 | 2.6 | 0.00 | 0.00 | 0.00 | 40 | 1020.9 |
| 20260507093016 | 43 | 19 | 1.7 | 3.5 | 0.00 | 0.00 | 0.00 | 39 | 1020.7 |
| 20260507092016 | 43 | 358 | 1.7 | 4.3 | 0.00 | 0.00 | 0.00 | 38 | 1020.7 |
| 20260507091017 | 44 | 18 | 1.7 | 3.5 | 0.00 | 0.00 | 0.00 | 37 | 1020.8 |
| 20260507090017 | 44 | 2 | 1.7 | 3.5 | 0.00 | 0.00 | 0.00 | 36 | 1020.8 |
| 20260507085017 | 44 | 21 | 2.6 | 5.2 | 0.00 | 0.00 | 0.00 | 35 | 1020.7 |
| 20260507084017 | 44 | 346 | 1.7 | 2.6 | 0.00 | 0.00 | 0.00 | 38 | 1020.7 |
| 20260507083017 | 44 | 7 | 1.7 | 3.5 | 0.00 | 0.00 | 0.00 | 37 | 1020.6 |
| 20260507082017 | 44 | 16 | 1.7 | 4.3 | 0.00 | 0.00 | 0.00 | 37 | 1020.6 |
| 20260507081018 | 43 | 25 | 3.5 | 7.0 | 0.00 | 0.00 | 0.00 | 38 | 1020.6 |
| 20260507080018 | 43 | 50 | 1.7 | 5.2 | 0.00 | 0.00 | 0.00 | 40 | 1020.3 |
| 20260507075018 | 43 | 17 | 1.7 | 3.5 | 0.00 | 0.00 | 0.00 | 38 | 1020.2 |
| 20260507074015 | 43 | 15 | 1.7 | 2.6 | 0.00 | 0.00 | 0.00 | 41 | 1020.2 |
| 20260507073015 | 42 | 360 | 1.7 | 4.3 | 0.00 | 0.00 | 0.00 | 42 | 1020.1 |
| 20260507072016 | 42 | 9 | 1.7 | 2.6 | 0.00 | 0.00 | 0.00 | 43 | 1020.1 |
| 20260507071015 | 43 | 6 | 1.7 | 3.5 | 0.00 | 0.00 | 0.00 | 42 | 1020.1 |
| 20260507070015 | 44 | 5 | 1.7 | 3.5 | 0.00 | 0.00 | 0.00 | 40 | 1020.1 |